createdAt,value
2018-01-07T00:01:48.819Z,6.05
2018-01-07T00:04:15.874Z,5.50
2018-01-07T00:06:42.938Z,6.93
2018-01-07T00:09:09.306Z,8.40
2018-01-07T00:11:35.666Z,8.00
2018-01-07T00:14:01.989Z,7.00
2018-01-07T00:16:28.326Z,6.22
2018-01-07T00:18:55.406Z,6.45
2018-01-07T00:21:22.485Z,8.82
2018-01-07T00:23:48.826Z,6.95
2018-01-07T00:26:15.141Z,7.62
2018-01-07T00:28:41.457Z,10.13
2018-01-07T00:31:07.780Z,7.37
2018-01-07T00:33:34.903Z,7.15
2018-01-07T00:36:01.223Z,6.37
2018-01-07T00:38:27.544Z,6.97
2018-01-07T00:40:53.888Z,5.22
2018-01-07T00:43:20.214Z,4.78
2018-01-07T00:45:46.558Z,5.10
2018-01-07T00:48:12.874Z,4.45
2018-01-07T00:50:39.198Z,4.80
2018-01-07T00:53:05.552Z,5.22
2018-01-07T00:55:31.892Z,4.87
2018-01-07T00:57:58.234Z,3.75
2018-01-07T01:00:25.316Z,5.57
2018-01-07T01:02:51.649Z,6.15
2018-01-07T01:05:17.970Z,8.93
2018-01-07T01:07:44.296Z,5.68
2018-01-07T01:10:10.654Z,10.48
2018-01-07T01:12:36.990Z,6.72
2018-01-07T01:15:03.342Z,7.85
2018-01-07T01:17:29.692Z,5.22
2018-01-07T01:19:56.010Z,5.80
2018-01-07T01:22:22.358Z,7.62
2018-01-07T01:24:48.698Z,7.53
2018-01-07T01:27:15.966Z,7.18
2018-01-07T01:29:43.062Z,7.95
2018-01-07T01:32:09.383Z,7.72
2018-01-07T01:34:36.741Z,8.77
2018-01-07T01:37:03.071Z,7.07
2018-01-07T01:39:30.158Z,7.53
2018-01-07T01:41:56.471Z,7.37
2018-01-07T01:44:22.815Z,6.60
2018-01-07T01:46:49.175Z,6.60
2018-01-07T01:49:22.187Z,7.22
2018-01-07T01:51:48.514Z,13.90
2018-01-07T01:54:14.857Z,9.52
2018-01-07T01:56:41.204Z,7.15
2018-01-07T01:59:07.743Z,7.72
2018-01-07T02:01:34.060Z,11.77
2018-01-07T02:04:00.404Z,9.75
2018-01-07T02:06:27.722Z,6.82
2018-01-07T02:08:54.034Z,6.12
2018-01-07T02:11:21.106Z,7.95
2018-01-07T02:13:47.435Z,10.77
2018-01-07T02:16:13.825Z,11.60
2018-01-07T02:18:40.151Z,10.32
2018-01-07T02:21:07.215Z,15.70
2018-01-07T02:23:33.526Z,12.93
2018-01-07T02:25:59.868Z,8.85
2018-01-07T02:28:26.206Z,12.10
2018-01-07T02:30:52.522Z,15.20
2018-01-07T02:33:18.864Z,13.65
2018-01-07T02:35:45.178Z,15.25
2018-01-07T02:38:12.318Z,14.13
2018-01-07T02:40:38.657Z,12.65
2018-01-07T02:43:04.975Z,14.10
2018-01-07T02:45:31.319Z,12.68
2018-01-07T02:47:57.629Z,13.77
2018-01-07T02:50:23.966Z,11.20
2018-01-07T02:52:50.314Z,18.73
2018-01-07T02:55:16.635Z,19.87
2018-01-07T02:57:42.948Z,16.98
2018-01-07T03:00:09.305Z,17.23
2018-01-07T03:02:36.641Z,20.65
2018-01-07T03:05:03.016Z,25.35
2018-01-07T03:07:29.321Z,30.37
2018-01-07T03:09:55.631Z,31.98
2018-01-07T03:12:22.870Z,14.20
2018-01-07T03:14:50.534Z,13.88
2018-01-07T03:17:16.869Z,9.02
2018-01-07T03:19:43.217Z,19.15
2018-01-07T03:22:09.561Z,22.35
2018-01-07T03:24:35.958Z,21.23
2018-01-07T03:27:03.068Z,22.83
2018-01-07T03:29:29.402Z,22.85
2018-01-07T03:31:55.746Z,17.73
2018-01-07T03:34:22.062Z,16.33
2018-01-07T03:36:48.378Z,16.52
2018-01-07T03:39:14.700Z,12.23
2018-01-07T03:41:41.041Z,10.73
2018-01-07T03:44:07.360Z,13.65
2018-01-07T03:46:33.680Z,12.73
2018-01-07T03:49:00.049Z,9.52
2018-01-07T03:51:26.378Z,8.50
2018-01-07T03:53:52.726Z,11.05
2018-01-07T03:56:19.062Z,12.02
2018-01-07T03:58:46.135Z,14.35
2018-01-07T04:01:12.466Z,14.10
2018-01-07T04:03:39.519Z,7.90
2018-01-07T04:06:05.902Z,12.65
2018-01-07T04:08:32.225Z,11.30
2018-01-07T04:10:58.545Z,10.80
2018-01-07T04:13:24.869Z,10.60
2018-01-07T04:15:51.266Z,11.02
2018-01-07T04:18:18.351Z,9.38
2018-01-07T04:20:44.661Z,12.63
2018-01-07T04:23:11.134Z,11.27
2018-01-07T04:25:37.458Z,10.98
2018-01-07T04:28:03.795Z,9.50
2018-01-07T04:30:30.187Z,11.25
2018-01-07T04:32:56.520Z,10.77
2018-01-07T04:35:22.848Z,9.85
2018-01-07T04:37:49.923Z,13.13
2018-01-07T04:40:16.247Z,13.95
2018-01-07T04:42:43.374Z,14.07
2018-01-07T04:45:10.450Z,11.60
2018-01-07T04:47:36.770Z,10.07
2018-01-07T04:50:03.078Z,10.77
2018-01-07T04:52:29.423Z,8.15
2018-01-07T04:54:55.767Z,10.90
2018-01-07T04:57:22.133Z,9.60
2018-01-07T04:59:48.437Z,10.82
2018-01-07T05:02:14.758Z,9.45
2018-01-07T05:04:41.089Z,7.95
2018-01-07T05:07:07.411Z,8.10
2018-01-07T05:09:33.782Z,12.18
2018-01-07T05:12:00.103Z,11.10
2018-01-07T05:14:26.427Z,9.32
2018-01-07T05:16:52.774Z,10.00
2018-01-07T05:19:19.082Z,9.05
2018-01-07T05:21:45.393Z,9.05
2018-01-07T05:24:12.478Z,8.45
2018-01-07T05:26:38.806Z,10.25
2018-01-07T05:29:05.854Z,10.63
2018-01-07T05:31:32.187Z,12.77
2018-01-07T05:33:58.499Z,8.40
2018-01-07T05:36:24.843Z,10.52
2018-01-07T05:38:51.171Z,7.75
2018-01-07T05:41:17.491Z,10.32
2018-01-07T05:43:43.813Z,9.98
2018-01-07T05:46:10.133Z,11.82
2018-01-07T05:48:37.210Z,10.27
2018-01-07T05:51:03.544Z,9.93
2018-01-07T05:53:29.865Z,11.73
2018-01-07T05:55:56.266Z,13.32
2018-01-07T05:58:22.582Z,8.77
2018-01-07T06:00:48.937Z,7.07
2018-01-07T06:03:16.010Z,11.45
2018-01-07T06:05:43.062Z,8.98
2018-01-07T06:08:09.378Z,8.02
2018-01-07T06:10:35.708Z,10.63
2018-01-07T06:13:02.804Z,6.40
2018-01-07T06:15:29.114Z,7.93
2018-01-07T06:17:55.422Z,9.23
2018-01-07T06:20:21.769Z,9.85
2018-01-07T06:22:48.119Z,7.65
2018-01-07T06:25:14.454Z,9.65
2018-01-07T06:27:40.782Z,12.57
2018-01-07T06:30:07.147Z,8.35
2018-01-07T06:32:33.463Z,12.32
2018-01-07T06:34:59.783Z,9.00
2018-01-07T06:37:26.118Z,10.13
2018-01-07T06:39:52.920Z,13.10
2018-01-07T06:42:19.962Z,12.82
2018-01-07T06:44:48.039Z,14.57
2018-01-07T06:47:15.138Z,16.00
2018-01-07T06:49:41.482Z,13.88
2018-01-07T06:52:07.842Z,18.17
2018-01-07T06:54:34.927Z,12.43
2018-01-07T06:57:01.258Z,13.23
2018-01-07T06:59:27.572Z,14.57
2018-01-07T07:01:54.250Z,11.07
2018-01-07T07:04:20.578Z,14.32
2018-01-07T07:06:46.948Z,14.35
2018-01-07T07:09:13.283Z,10.48
2018-01-07T07:11:40.602Z,14.70
2018-01-07T07:14:06.966Z,15.00
2018-01-07T07:16:34.033Z,16.58
2018-01-07T07:19:01.081Z,13.75
2018-01-07T07:21:28.165Z,15.52
2018-01-07T07:23:54.531Z,12.90
2018-01-07T07:26:20.926Z,15.93
2018-01-07T07:28:47.234Z,13.62
2018-01-07T07:31:13.570Z,10.10
2018-01-07T07:33:39.912Z,12.63
2018-01-07T07:36:06.235Z,13.57
2018-01-07T07:38:33.574Z,16.50
2018-01-07T07:41:00.630Z,14.05
2018-01-07T07:43:26.939Z,15.80
2018-01-07T07:45:53.258Z,12.65
2018-01-07T07:48:19.606Z,12.77
2018-01-07T07:50:46.701Z,15.98
2018-01-07T07:53:13.048Z,26.95
2018-01-07T07:55:39.374Z,43.63
2018-01-07T07:58:05.718Z,89.90
2018-01-07T08:00:32.035Z,75.72
2018-01-07T08:02:58.379Z,171.07
2018-01-07T08:05:24.698Z,107.53
2018-01-07T08:07:51.039Z,80.20
2018-01-07T08:10:17.374Z,105.20
2018-01-07T08:12:43.798Z,106.07
2018-01-07T08:15:10.166Z,73.22
2018-01-07T08:17:36.518Z,124.15
2018-01-07T08:20:03.580Z,74.18
2018-01-07T08:22:29.897Z,74.60
2018-01-07T08:24:56.961Z,28.40
2018-01-07T08:27:23.339Z,69.93
2018-01-07T08:29:49.660Z,73.43
2018-01-07T08:32:16.000Z,87.68
2018-01-07T08:34:42.329Z,52.13
2018-01-07T08:37:08.672Z,54.17
2018-01-07T08:39:35.012Z,89.82
2018-01-07T08:42:01.342Z,32.10
2018-01-07T08:44:27.663Z,35.40
2018-01-07T08:46:53.990Z,45.60
2018-01-07T08:49:20.326Z,99.70
2018-01-07T08:51:46.673Z,51.45
2018-01-07T08:54:13.030Z,35.83
2018-01-07T08:56:39.359Z,72.75
2018-01-07T08:59:05.706Z,48.38
2018-01-07T09:01:32.039Z,67.18
2018-01-07T09:03:58.427Z,37.40
2018-01-07T09:06:24.760Z,27.80
2018-01-07T09:08:51.831Z,29.60
2018-01-07T09:11:18.895Z,13.50
2018-01-07T09:13:45.235Z,15.63
2018-01-07T09:16:11.594Z,17.62
2018-01-07T09:18:37.916Z,16.37
2018-01-07T09:21:04.254Z,18.02
2018-01-07T09:23:30.586Z,15.52
2018-01-07T09:25:56.918Z,22.60
2018-01-07T09:28:23.258Z,20.42
2018-01-07T09:30:49.633Z,17.90
2018-01-07T09:33:16.830Z,25.88
2018-01-07T09:35:43.565Z,22.40
2018-01-07T09:38:09.894Z,31.52
2018-01-07T09:40:36.251Z,17.37
2018-01-07T09:43:02.566Z,13.80
2018-01-07T09:45:28.916Z,18.15
2018-01-07T09:47:55.228Z,20.48
2018-01-07T09:50:21.604Z,24.02
2018-01-07T09:52:48.695Z,37.20
2018-01-07T09:55:15.027Z,11.52
2018-01-07T09:57:41.354Z,11.55
2018-01-07T10:00:07.673Z,13.77
2018-01-07T10:02:34.010Z,11.70
2018-01-07T10:05:00.363Z,14.70
2018-01-07T10:07:26.687Z,13.35
2018-01-07T10:09:53.014Z,14.73
2018-01-07T10:12:19.335Z,12.32
2018-01-07T10:14:45.686Z,11.40
2018-01-07T10:17:12.038Z,13.73
2018-01-07T10:19:39.402Z,14.65
2018-01-07T10:22:05.714Z,17.02
2018-01-07T10:24:32.045Z,11.60
2018-01-07T10:26:58.380Z,17.73
2018-01-07T10:29:24.806Z,15.52
2018-01-07T10:31:51.141Z,16.52
2018-01-07T10:34:17.507Z,19.20
2018-01-07T10:36:43.871Z,15.40
2018-01-07T10:39:10.186Z,18.67
2018-01-07T10:41:37.282Z,19.35
2018-01-07T10:44:03.638Z,24.35
2018-01-07T10:46:29.974Z,16.70
2018-01-07T10:48:56.343Z,22.40
2018-01-07T10:51:23.461Z,26.25
2018-01-07T10:53:49.795Z,17.42
2018-01-07T10:56:16.143Z,16.05
2018-01-07T10:58:43.282Z,21.02
2018-01-07T11:01:15.840Z,15.77
2018-01-07T11:03:42.178Z,24.42
2018-01-07T11:06:08.550Z,17.55
2018-01-07T11:08:34.867Z,28.67
2018-01-07T11:11:01.971Z,31.37
2018-01-07T11:13:28.289Z,37.25
2018-01-07T11:15:54.665Z,33.50
2018-01-07T11:18:20.986Z,36.75
2018-01-07T11:20:49.110Z,40.83
2018-01-07T11:23:16.487Z,51.10
2018-01-07T11:25:42.839Z,38.10
2018-01-07T11:28:09.180Z,32.40
2018-01-07T11:30:35.530Z,21.23
2018-01-07T11:33:01.871Z,33.72
2018-01-07T11:35:28.958Z,40.00
2018-01-07T11:37:55.371Z,26.17
2018-01-07T11:40:22.710Z,29.63
2018-01-07T11:42:49.822Z,44.85
2018-01-07T11:45:16.168Z,28.58
2018-01-07T11:47:42.546Z,28.48
2018-01-07T11:50:08.883Z,24.05
2018-01-07T11:52:35.197Z,50.95
2018-01-07T11:55:02.285Z,44.13
2018-01-07T11:57:28.618Z,41.42
2018-01-07T11:59:54.982Z,27.17
2018-01-07T12:02:21.313Z,33.78
2018-01-07T12:04:47.702Z,30.95
2018-01-07T12:07:14.050Z,36.30
2018-01-07T12:09:40.398Z,38.35
2018-01-07T12:12:06.746Z,56.05
2018-01-07T12:14:33.077Z,39.15
2018-01-07T12:16:59.457Z,31.95
2018-01-07T12:19:25.811Z,43.80
2018-01-07T12:21:52.159Z,46.35
2018-01-07T12:24:18.534Z,26.67
2018-01-07T12:26:44.857Z,36.05
2018-01-07T12:29:12.979Z,33.85
2018-01-07T12:31:39.334Z,28.92
2018-01-07T12:34:05.663Z,27.05
2018-01-07T12:36:32.026Z,26.75
2018-01-07T12:38:59.103Z,24.12
2018-01-07T12:41:26.466Z,20.83
2018-01-07T12:43:52.786Z,21.73
2018-01-07T12:46:19.121Z,28.87
2018-01-07T12:48:45.492Z,25.90
2018-01-07T12:51:12.620Z,18.23
2018-01-07T12:53:38.944Z,22.20
2018-01-07T12:56:05.434Z,17.33
2018-01-07T12:58:32.554Z,24.50
2018-01-07T13:00:58.915Z,20.85
2018-01-07T13:03:25.997Z,26.52
2018-01-07T13:05:52.342Z,18.05
2018-01-07T13:08:18.677Z,17.60
2018-01-07T13:10:45.020Z,20.20
2018-01-07T13:13:11.370Z,21.08
2018-01-07T13:15:37.703Z,19.12
2018-01-07T13:18:04.114Z,16.62
2018-01-07T13:20:30.448Z,17.33
2018-01-07T13:22:56.766Z,20.90
2018-01-07T13:25:23.842Z,14.95
2018-01-07T13:27:50.246Z,18.00
2018-01-07T13:30:16.581Z,18.62
2018-01-07T13:32:42.896Z,19.37
2018-01-07T13:35:09.223Z,18.37
2018-01-07T13:37:35.573Z,16.58
2018-01-07T13:40:01.935Z,21.55
2018-01-07T13:42:28.272Z,17.83
2018-01-07T13:44:54.594Z,20.88
2018-01-07T13:47:20.963Z,18.70
2018-01-07T13:49:48.077Z,19.30
2018-01-07T13:52:14.449Z,24.87
2018-01-07T13:54:41.535Z,21.37
2018-01-07T13:57:07.896Z,15.10
2018-01-07T13:59:34.274Z,19.05
2018-01-07T14:02:00.613Z,17.87
2018-01-07T14:04:26.955Z,18.12
2018-01-07T14:06:53.274Z,14.87
2018-01-07T14:09:19.603Z,16.55
2018-01-07T14:11:45.947Z,16.48
2018-01-07T14:14:12.303Z,17.70
2018-01-07T14:16:38.633Z,19.83
2018-01-07T14:19:05.115Z,22.50
2018-01-07T14:21:32.195Z,21.27
2018-01-07T14:23:58.518Z,23.15
2018-01-07T14:26:24.870Z,24.92
2018-01-07T14:28:51.184Z,20.17
2018-01-07T14:31:17.506Z,22.60
2018-01-07T14:33:43.866Z,26.12
2018-01-07T14:36:10.198Z,24.85
2018-01-07T14:38:36.546Z,24.58
2018-01-07T14:41:02.914Z,36.15
2018-01-07T14:43:29.980Z,37.40
2018-01-07T14:45:56.339Z,38.92
2018-01-07T14:48:22.672Z,31.05
2018-01-07T14:50:49.026Z,36.55
2018-01-07T14:53:15.405Z,35.13
2018-01-07T14:55:41.739Z,40.72
2018-01-07T14:58:08.177Z,41.92
2018-01-07T15:00:34.497Z,36.53
2018-01-07T15:03:01.602Z,46.78
2018-01-07T15:05:27.918Z,42.75
2018-01-07T15:07:54.246Z,36.72
2018-01-07T15:10:20.588Z,40.05
2018-01-07T15:12:46.958Z,39.25
2018-01-07T15:15:14.038Z,37.42
2018-01-07T15:17:40.414Z,38.72
2018-01-07T15:20:06.771Z,38.47
2018-01-07T15:22:33.838Z,39.03
2018-01-07T15:25:00.175Z,39.60
2018-01-07T15:27:26.509Z,37.38
2018-01-07T15:29:52.929Z,39.67
2018-01-07T15:32:20.158Z,42.65
2018-01-07T15:34:46.518Z,38.72
2018-01-07T15:37:12.849Z,75.75
2018-01-07T15:39:39.200Z,63.13
2018-01-07T15:42:05.603Z,34.58
2018-01-07T15:44:32.689Z,46.30
2018-01-07T15:46:59.819Z,42.62
2018-01-07T15:49:26.154Z,37.65
2018-01-07T15:51:52.518Z,39.75
2018-01-07T15:54:18.954Z,56.08
2018-01-07T15:56:45.279Z,45.50
2018-01-07T15:59:11.631Z,46.75
2018-01-07T16:01:37.958Z,79.87
2018-01-07T16:04:04.422Z,91.78
2018-01-07T16:06:31.580Z,34.88
2018-01-07T16:08:58.650Z,34.97
2018-01-07T16:11:26.020Z,31.70
2018-01-07T16:13:52.786Z,25.92
2018-01-07T16:16:19.638Z,28.15
2018-01-07T16:18:45.994Z,21.80
2018-01-07T16:21:13.063Z,24.10
2018-01-07T16:23:39.370Z,22.23
2018-01-07T16:26:06.467Z,21.40
2018-01-07T16:28:32.796Z,14.10
2018-01-07T16:30:59.126Z,16.42
2018-01-07T16:33:25.479Z,19.02
2018-01-07T16:35:51.812Z,18.37
2018-01-07T16:38:18.122Z,24.05
2018-01-07T16:40:44.446Z,27.15
2018-01-07T16:43:10.810Z,24.95
2018-01-07T16:45:37.167Z,50.10
2018-01-07T16:48:03.510Z,25.02
2018-01-07T16:50:30.602Z,32.90
2018-01-07T16:52:56.923Z,24.65
2018-01-07T16:55:23.251Z,23.25
2018-01-07T16:57:49.610Z,27.87
2018-01-07T17:00:15.975Z,25.05
2018-01-07T17:02:43.332Z,28.48
2018-01-07T17:05:09.654Z,34.33
2018-01-07T17:07:35.966Z,25.60
2018-01-07T17:10:02.351Z,31.85
2018-01-07T17:12:29.476Z,29.08
2018-01-07T17:14:55.810Z,24.70
2018-01-07T17:17:22.183Z,26.42
2018-01-07T17:19:48.521Z,26.77
2018-01-07T17:22:15.859Z,28.20
2018-01-07T17:24:42.179Z,28.58
2018-01-07T17:27:10.264Z,26.70
2018-01-07T17:29:36.616Z,30.80
2018-01-07T17:32:02.951Z,28.60
2018-01-07T17:34:30.299Z,29.92
2018-01-07T17:36:56.618Z,29.63
2018-01-07T17:39:22.930Z,35.58
2018-01-07T17:41:50.011Z,37.08
2018-01-07T17:44:16.342Z,44.60
2018-01-07T17:46:43.226Z,46.78
2018-01-07T17:49:09.555Z,42.92
2018-01-07T17:51:35.909Z,33.55
2018-01-07T17:54:02.234Z,36.90
2018-01-07T17:56:28.571Z,32.83
2018-01-07T17:58:55.175Z,42.20
2018-01-07T18:01:21.627Z,41.50
2018-01-07T18:03:47.970Z,31.15
2018-01-07T18:06:14.311Z,37.20
2018-01-07T18:08:41.411Z,42.97
2018-01-07T18:11:07.787Z,42.50
2018-01-07T18:13:34.132Z,43.58
2018-01-07T18:16:01.223Z,42.10
2018-01-07T18:18:27.618Z,36.85
2018-01-07T18:20:54.676Z,39.47
2018-01-07T18:23:21.032Z,47.38
2018-01-07T18:25:47.379Z,42.70
2018-01-07T18:28:13.722Z,37.88
2018-01-07T18:30:40.100Z,39.85
2018-01-07T18:33:07.168Z,47.10
2018-01-07T18:35:33.529Z,38.55
2018-01-07T18:37:59.850Z,37.90
2018-01-07T18:40:26.180Z,44.72
2018-01-07T18:42:52.507Z,43.08
2018-01-07T18:45:18.860Z,36.38
2018-01-07T18:47:45.203Z,46.63
2018-01-07T18:50:11.530Z,42.97
2018-01-07T18:52:37.853Z,45.60
2018-01-07T18:55:04.218Z,38.28
2018-01-07T18:57:31.287Z,37.95
2018-01-07T18:59:58.356Z,38.50
2018-01-07T19:02:24.688Z,37.33
2018-01-07T19:04:51.007Z,43.22
2018-01-07T19:07:17.376Z,36.58
2018-01-07T19:09:43.775Z,38.80
2018-01-07T19:12:10.178Z,40.22
2018-01-07T19:14:36.494Z,41.33
2018-01-07T19:17:02.830Z,42.58
2018-01-07T19:19:29.149Z,39.65
2018-01-07T19:21:55.482Z,40.10
2018-01-07T19:24:21.829Z,44.22
2018-01-07T19:26:48.146Z,44.42
2018-01-07T19:29:15.482Z,42.50
2018-01-07T19:31:42.818Z,41.35
2018-01-07T19:34:09.130Z,47.13
2018-01-07T19:36:35.471Z,47.62
2018-01-07T19:39:01.837Z,43.78
2018-01-07T19:41:28.146Z,55.85
2018-01-07T19:43:54.474Z,53.67
2018-01-07T19:46:21.578Z,40.72
2018-01-07T19:48:49.046Z,39.25
2018-01-07T19:51:15.807Z,43.50
2018-01-07T19:53:42.190Z,44.65
2018-01-07T19:56:08.552Z,40.78
2018-01-07T19:58:35.510Z,43.30
2018-01-07T20:01:01.894Z,44.40
2018-01-07T20:03:28.990Z,37.38
2018-01-07T20:05:55.344Z,37.38
2018-01-07T20:08:21.825Z,41.95
2018-01-07T20:10:48.175Z,40.10
2018-01-07T20:13:14.576Z,42.92
2018-01-07T20:15:41.572Z,41.83
2018-01-07T20:18:07.930Z,46.22
2018-01-07T20:20:35.004Z,42.92
2018-01-07T20:23:01.382Z,46.42
2018-01-07T20:25:27.762Z,40.95
2018-01-07T20:27:54.112Z,34.13
2018-01-07T20:30:20.457Z,49.28
2018-01-07T20:32:46.813Z,48.87
2018-01-07T20:35:13.174Z,40.35
2018-01-07T20:37:40.263Z,38.80
2018-01-07T20:40:06.598Z,45.83
2018-01-07T20:42:32.959Z,47.50
2018-01-07T20:44:59.387Z,36.05
2018-01-07T20:47:26.492Z,42.33
2018-01-07T20:49:52.866Z,44.75
2018-01-07T20:52:19.258Z,46.95
2018-01-07T20:54:45.670Z,44.92
2018-01-07T20:57:12.757Z,37.95
2018-01-07T20:59:39.146Z,43.60
2018-01-07T21:02:05.538Z,40.92
2018-01-07T21:04:31.919Z,43.78
2018-01-07T21:06:58.339Z,47.35
2018-01-07T21:09:24.719Z,39.83
2018-01-07T21:11:51.077Z,46.65
2018-01-07T21:14:18.261Z,46.85
2018-01-07T21:16:44.633Z,45.25
2018-01-07T21:19:11.003Z,43.20
2018-01-07T21:21:38.095Z,45.45
2018-01-07T21:24:04.478Z,46.75
2018-01-07T21:26:31.620Z,50.10
2018-01-07T21:28:58.746Z,48.13
2018-01-07T21:31:25.094Z,51.03
2018-01-07T21:33:51.430Z,48.70
2018-01-07T21:36:18.528Z,45.63
2018-01-07T21:38:44.909Z,46.35
2018-01-07T21:41:11.994Z,48.13
2018-01-07T21:43:38.340Z,48.90
2018-01-07T21:46:04.701Z,48.20
2018-01-07T21:48:31.098Z,48.45
2018-01-07T21:50:57.481Z,42.53
2018-01-07T21:53:24.613Z,49.85
2018-01-07T21:55:50.966Z,44.60
2018-01-07T21:58:18.053Z,47.33
2018-01-07T22:00:56.693Z,45.40
2018-01-07T22:03:35.180Z,41.47
2018-01-07T22:06:13.735Z,41.95
2018-01-07T22:08:40.094Z,46.33
2018-01-07T22:11:07.238Z,39.00
2018-01-07T22:13:34.357Z,44.30
2018-01-07T22:16:00.703Z,43.20
2018-01-07T22:18:27.042Z,46.53
2018-01-07T22:20:54.426Z,44.47
2018-01-07T22:23:20.798Z,46.58
2018-01-07T22:25:47.152Z,43.38
2018-01-07T22:28:13.513Z,43.75
2018-01-07T22:30:39.887Z,43.72
2018-01-07T22:33:06.218Z,46.17
2018-01-07T22:35:32.587Z,51.92
2018-01-07T22:37:58.979Z,42.45
2018-01-07T22:40:25.354Z,45.00
2018-01-07T22:42:52.442Z,40.97
2018-01-07T22:45:18.805Z,43.00
2018-01-07T22:47:51.266Z,40.00
2018-01-07T22:50:17.662Z,49.05
2018-01-07T22:52:44.010Z,43.85
2018-01-07T22:55:10.353Z,41.50
2018-01-07T22:57:36.713Z,40.42
2018-01-07T23:00:03.180Z,37.05
2018-01-07T23:02:29.546Z,47.53
2018-01-07T23:04:55.890Z,41.90
2018-01-07T23:07:22.251Z,38.97
2018-01-07T23:09:49.387Z,38.03
2018-01-07T23:12:15.799Z,42.55
2018-01-07T23:14:42.198Z,43.20
2018-01-07T23:17:08.578Z,40.88
2018-01-07T23:19:34.990Z,44.30
2018-01-07T23:22:01.391Z,43.65
2018-01-07T23:24:29.051Z,41.75
2018-01-07T23:26:55.409Z,38.53
2018-01-07T23:29:21.742Z,44.22
2018-01-07T23:31:48.109Z,43.08
2018-01-07T23:34:15.238Z,46.03
2018-01-07T23:36:41.623Z,49.17
2018-01-07T23:39:08.982Z,50.45
2018-01-07T23:41:35.315Z,44.63
2018-01-07T23:44:01.678Z,44.22
2018-01-07T23:46:28.038Z,51.85
2018-01-07T23:48:55.138Z,42.30
2018-01-07T23:51:21.498Z,42.78
2018-01-07T23:53:47.834Z,39.45
2018-01-07T23:56:14.225Z,45.00
2018-01-07T23:58:40.564Z,46.33
